Atlantis — KAQP — position and weather

sailwx.info

Track history (hours):
 
Tides and Currents Weather Stations Pressure Air Temp Water Temp Dewpoint Dewpoint Depression Visibility Wind Speed Wind Dir Waves Ship Positions

Oceanographic research ship Atlantis (USA)

Ship's website: http://www.whoi.edu/page.do?pid=8143

Detailed information on ship capabilities available from University of Delaware's Ocean Information Center.

Owner: WOODS HOLE OCEANOGRAPHIC INSTITUTION, WOODS HOLE, MA. More information available from US FCC via Universal Licensing System.

Last reported at 2020-Apr-07 15:00 UTC. Time now 2020-Apr-07 16:45 UTC.
Position N 41°30' W 070°42'.

Type: Ship. MMSI: 367241000.

Wind from 250 at 10 knots

Barometer 1012.9 mb
Air temperature 11.0 ° C
Dewpoint -3.3 ° C

Date/timePositionNaut miles runAvg speedWind from/ knotsBaromVisibWave heightAir tempDewpointWater temp
2020-Apr-07 15:00N 41°30' W 070°42'0 0.0 250 / 101012.9 11.0-3.3
2020-Apr-07 14:00N 41°30' W 070°42'0 0.0 270 / 51013.3 10.0-2.5
2020-Apr-07 13:00N 41°30' W 070°42'0 0.0 280 / 51013.0 8.5-1.7
2020-Apr-07 12:00N 41°30' W 070°42'0 0.0 280 / 51013.4 8.3-0.7
2020-Apr-07 11:00N 41°30' W 070°42'0 0.0 280 / 41013.3 8.2-0.8
2020-Apr-07 10:00N 41°30' W 070°42'0 0.0 270 / 101012.7 8.3-2.1
2020-Apr-07 09:00N 41°30' W 070°42'0 0.0 290 / 31012.7 8.3-1.1
2020-Apr-07 08:00N 41°30' W 070°42'0 0.0 290 / 61012.8 8.8-2.7
2020-Apr-07 07:00N 41°30' W 070°42'0 0.0 280 / 81012.5 7.9 1.6
2020-Apr-07 06:00N 41°30' W 070°42'0 0.0 260 / 91012.9 8.2 2.6
2020-Apr-07 05:00N 41°30' W 070°42'0 0.0 250 / 101013.2 8.2 3.3
2020-Apr-07 04:00N 41°30' W 070°42'0 0.0 190 / 41013.2 6.8 4.3
2020-Apr-07 03:00N 41°30' W 070°42'0 0.0 220 / 101013.3 7.2 3.9
2020-Apr-07 02:00N 41°30' W 070°42'0 0.0 220 / 121013.6 7.3 3.6
2020-Apr-07 01:00N 41°30' W 070°42'0 0.0 200 / 121013.7 7.4 2.3
2020-Apr-07 00:00N 41°30' W 070°42'0 0.0 200 / 91013.5 7.4 2.9
2020-Apr-06 23:00N 41°30' W 070°42'0 0.0 170 / 161013.3 8.2 2.4
2020-Apr-06 22:00N 41°30' W 070°42'0 0.0 180 / 111013.6 9.1 2.1
2020-Apr-06 21:00N 41°30' W 070°42'0 0.0 190 / 91013.7 10.0 1.0
2020-Apr-06 20:00N 41°30' W 070°42'0 0.0 120 / 91013.6 10.3-1.4
2020-Apr-06 19:00N 41°30' W 070°42'0 0.0 130 / 81014.4 9.7-0.6
2020-Apr-06 18:00N 41°30' W 070°42'0 0.0 120 / 81014.8 9.8 1.2
2020-Apr-06 17:00N 41°30' W 070°42'0 0.0 140 / 71015.6 10.6-0.5
2020-Apr-06 16:00N 41°30' W 070°42'0 0.0 350 / 31016.1 10.8-2.1
2020-Apr-06 15:00N 41°30' W 070°42'0 0.0 350 / 51016.4 10.2-1.5
2020-Apr-06 14:00N 41°30' W 070°42'0 0.0 030 / 61016.5 8.5 2.2
2020-Apr-06 13:00N 41°30' W 070°42'0 0.0 340 / 31016.4 7.7 3.2
2020-Apr-06 12:00N 41°30' W 070°42'0 0.0 360 / 101016.2 6.7 3.3
2020-Apr-06 11:00N 41°30' W 070°42'0 0.0 010 / 41015.6 6.6 4.4
2020-Apr-06 10:00N 41°30' W 070°42'0 0.0 330 / 41015.1 6.5 4.8
2020-Apr-06 09:00N 41°30' W 070°42'0 0.0 320 / 61014.9 6.6 5.1
2020-Apr-06 08:00N 41°30' W 070°42'0 0.0 250 / 51014.8 6.8 5.0
2020-Apr-06 07:00N 41°30' W 070°42'0 0.0 220 / 61014.8 6.7 5.0
2020-Apr-06 06:00N 41°30' W 070°42'0 0.0 220 / 71015.1 6.9 4.8
2020-Apr-06 05:00N 41°30' W 070°42'0 0.0 230 / 61015.8 6.8 4.7
2020-Apr-06 04:00N 41°30' W 070°42'0 0.0 230 / 71016.6 6.7 4.3
2020-Apr-06 03:00N 41°30' W 070°42'0 0.0 220 / 101016.9 6.6 4.1
2020-Apr-06 02:00N 41°30' W 070°42'0 0.0 190 / 101017.0 6.4 4.0
2020-Apr-06 01:00N 41°30' W 070°42'0 0.0 200 / 131017.2 6.3 3.8
2020-Apr-06 00:00N 41°30' W 070°42'0 0.0 200 / 121016.9 6.3 3.7
2020-Apr-05 23:00N 41°30' W 070°42'0 0.0 200 / 111017.2 6.4 3.6
2020-Apr-05 22:00N 41°30' W 070°42'0 0.0 210 / 131017.2 7.1 3.3
2020-Apr-05 21:00N 41°30' W 070°42'0 0.0 220 / 111017.0 7.1 3.3
2020-Apr-05 20:00N 41°30' W 070°42'0 0.0 210 / 101017.4 7.7 3.4
2020-Apr-05 19:00N 41°30' W 070°42'0 0.0 210 / 61018.1 7.7 3.2
2020-Apr-05 18:00N 41°30' W 070°42'0 0.0 120 / 41018.5 7.0 2.0
2020-Apr-05 17:00N 41°30' W 070°42'0 0.0 160 / 71018.7 7.1 2.6
2020-Apr-05 16:00N 41°30' W 070°42'0 0.0 150 / 31019.0 6.9 2.0
2020-Apr-05 15:00N 41°30' W 070°42'0 0.0 160 / 21019.5 6.2 2.1
2020-Apr-05 14:00N 41°30' W 070°42'0 0.0 200 / 11019.5 5.9 2.1
2020-Apr-05 13:00N 41°30' W 070°42'0 0.0 310 / 21019.4 5.5 2.2
2020-Apr-05 12:00N 41°30' W 070°42'0 0.0 100 / 31019.1 4.9 1.9
2020-Apr-05 11:00N 41°30' W 070°42'0 0.0 040 / 21018.6 4.3 1.8
2020-Apr-05 10:00N 41°30' W 070°42'0 0.0 040 / 21018.2 4.1 1.9
2020-Apr-05 09:00N 41°30' W 070°42'0 0.0 010 / 41017.8 4.2 2.0
2020-Apr-05 08:00N 41°30' W 070°42'0 0.0 020 / 31017.7 4.0 2.1
2020-Apr-05 07:00N 41°30' W 070°42'0 0.0 350 / 21017.5 4.1 2.1
2020-Apr-05 06:00N 41°30' W 070°42'0 0.0 350 / 21017.4 4.2 1.9
2020-Apr-05 05:00N 41°30' W 070°42'0 0.0 330 / 31017.5 3.9 1.5
2020-Apr-05 04:00N 41°30' W 070°42'0 0.0 030 / 41017.5 3.5 0.9
2020-Apr-05 03:00N 41°30' W 070°42'0 0.0 030 / 31017.6 3.3 0.9
2020-Apr-05 02:00N 41°30' W 070°42'0 0.0 070 / 21017.3 3.4 0.7
2020-Apr-05 01:00N 41°30' W 070°42'0 0.0 030 / 51017.3 3.9 1.0
2020-Apr-05 00:00N 41°30' W 070°42'0 0.0 020 / 71016.8 4.4 1.2
2020-Apr-04 23:00N 41°30' W 070°42'0 0.0 020 / 41016.5 5.3 1.4
2020-Apr-04 22:00N 41°30' W 070°42'0 0.0 060 / 51016.0 6.3 1.4
2020-Apr-04 21:00N 41°30' W 070°42'0 0.0 360 / 111015.8 6.0 1.2
2020-Apr-04 20:00N 41°30' W 070°42'0 0.0 020 / 141015.9 5.8 1.4
2020-Apr-04 19:00N 41°30' W 070°42'0 0.0 020 / 151015.9 5.7 1.2
2020-Apr-04 18:00N 41°30' W 070°42'0 0.0 350 / 61016.2 5.4 1.8
2020-Apr-04 17:00N 41°30' W 070°42'0 0.0 030 / 101016.4 4.7 1.7
2020-Apr-04 16:00N 41°30' W 070°42'0 0.0 030 / 121016.3 4.9 2.0
2020-Apr-04 15:00N 41°30' W 070°42'0 0.0 020 / 91016.3 4.7 2.3
2020-Apr-04 14:00N 41°30' W 070°42'0 0.0 020 / 181016.0 4.5 2.3
2020-Apr-04 13:00N 41°30' W 070°42'0 0.0 010 / 141015.5 4.5 2.5
2020-Apr-04 12:00N 41°30' W 070°42'0 0.0 020 / 141014.5 4.7 2.5
2020-Apr-04 11:00N 41°30' W 070°42'0 0.0 010 / 131013.5 5.0 2.9
2020-Apr-04 10:00N 41°30' W 070°42'0 0.0 1012.3 5.4 3.2
2020-Apr-04 09:00N 41°30' W 070°42'0 0.0 010 / 171011.7 5.8 3.4
2020-Apr-04 08:00N 41°30' W 070°42'0 0.0 040 / 101011.2 5.8 3.7
2020-Apr-04 07:00N 41°30' W 070°42'0 0.0 030 / 91010.8 5.9 4.2
2020-Apr-04 06:00N 41°30' W 070°42'0 0.0 020 / 31010.4 6.0 4.2
2020-Apr-04 05:00N 41°30' W 070°42'0 0.0 060 / 121009.7 6.1 4.3
2020-Apr-04 04:00N 41°30' W 070°42'0 0.0 020 / 151009.3 6.2 4.4
2020-Apr-04 03:00N 41°30' W 070°42'0 0.0 030 / 191008.8 6.3 4.5
2020-Apr-04 02:00N 41°30' W 070°42'0 0.0 020 / 101008.3 6.5 4.6
2020-Apr-04 01:00N 41°30' W 070°42'0 0.0 010 / 111007.4 6.6 4.8
2020-Apr-04 00:00N 41°30' W 070°42'0 0.0 030 / 221005.9 6.6 4.6
2020-Apr-03 23:00N 41°30' W 070°42'0 0.0 020 / 181005.0 6.6 4.6
2020-Apr-03 22:00N 41°30' W 070°42'0 0.0 010 / 221003.8 6.5 4.7
2020-Apr-03 21:00N 41°30' W 070°42'0 0.0 020 / 191002.5 6.7 4.8
2020-Apr-03 20:00N 41°30' W 070°42'0 0.0 040 / 141001.4 6.8 4.9
2020-Apr-03 19:00N 41°30' W 070°42'0 0.0 020 / 81000.1 6.8 4.9
2020-Apr-03 18:00N 41°30' W 070°42'0 0.0 040 / 15999.1 6.8 4.8
2020-Apr-03 17:00N 41°30' W 070°42'0 0.0 020 / 21998.1 6.9 4.8
2020-Apr-03 16:00N 41°30' W 070°42'0 0.0 010 / 14997.4 6.8 5.0
2020-Apr-03 15:00N 41°30' W 070°42'0 0.0 010 / 31996.7 6.7 5.1
2020-Apr-03 14:00N 41°30' W 070°42'0 0.0 996.4 6.8 5.2
2020-Apr-03 13:00N 41°30' W 070°42'0 0.0 350 / 14995.7 6.7 5.1
2020-Apr-03 12:00N 41°30' W 070°42'0 0.0 360 / 22995.3 6.8 5.0
2020-Apr-03 11:00N 41°30' W 070°42'0 0.0 350 / 22995.0 6.9 5.0
2020-Apr-03 10:00N 41°30' W 070°42'0 0.0 350 / 12994.6 6.9 5.0
2020-Apr-03 09:00N 41°30' W 070°42'0 0.0 350 / 17994.5 6.8 5.0
2020-Apr-03 08:00N 41°30' W 070°42'0 0.0 350 / 10994.3 6.6 4.7
2020-Apr-03 07:00N 41°30' W 070°42'0 0.0 340 / 11994.5 6.4 4.6
2020-Apr-03 06:00N 41°30' W 070°42'0 0.0 340 / 15994.8 6.1 4.3
2020-Apr-03 05:00N 41°30' W 070°42'0 0.0 330 / 7995.6 5.9 4.1
2020-Apr-03 04:00N 41°30' W 070°42'0 0.0 340 / 14995.8 5.5 3.7
2020-Apr-03 03:00N 41°30' W 070°42'0 0.0 330 / 12996.4 5.3 3.3
2020-Apr-03 02:00N 41°30' W 070°42'0 0.0 330 / 16997.0 5.2 3.1
2020-Apr-03 01:00N 41°30' W 070°42'0 0.0 320 / 22997.4 5.3 3.3
2020-Apr-03 00:00N 41°30' W 070°42'0 0.0 320 / 20997.2 5.9 3.2
2020-Apr-02 23:00N 41°30' W 070°42'0 0.0 320 / 20997.1 6.3 3.1
2020-Apr-02 22:00N 41°30' W 070°42'0 0.0 330 / 18997.0 6.7 3.3
2020-Apr-02 18:00N 41°30' W 070°42'0 0.0 330 / 19997.6 7.7 2.8
2020-Apr-02 17:00N 41°30' W 070°42'0 0.0 330 / 10998.2 7.7 3.1
2020-Apr-02 16:00N 41°30' W 070°42'0 0.0 330 / 19998.3 7.3 2.5
2020-Apr-02 15:00N 41°30' W 070°42'0 0.0 330 / 18998.9 6.6 2.1
2020-Apr-02 14:00N 41°30' W 070°42'0 0.0 330 / 17999.5 6.1 1.6
2020-Apr-02 13:00N 41°30' W 070°42'0 0.0 320 / 191000.1 5.3 1.5
2020-Apr-02 12:00N 41°30' W 070°42'   320 / 201000.5 4.6 1.5
Track history (hours):
 
Tides and Currents Weather Stations Pressure Air Temp Water Temp Dewpoint Dewpoint Depression Visibility Wind Speed Wind Dir Waves Ship Positions

Oceanographic research ship Atlantis (USA)

Ship's website: http://www.whoi.edu/page.do?pid=8143

Detailed information on ship capabilities available from University of Delaware's Ocean Information Center.

Owner: WOODS HOLE OCEANOGRAPHIC INSTITUTION, WOODS HOLE, MA. More information available from US FCC via Universal Licensing System.

Last reported at 2020-Apr-07 15:00 UTC. Time now 2020-Apr-07 16:45 UTC.
Position N 41°30' W 070°42'.

Type: Ship. MMSI: 367241000.

Wind from 250 at 10 knots

Barometer 1012.9 mb
Air temperature 11.0 ° C
Dewpoint -3.3 ° C

Date/timePositionNaut miles runAvg speedWind from/ knotsBaromVisibWave heightAir tempDewpointWater temp
2020-Apr-07 15:00N 41°30' W 070°42'0 0.0 250 / 101012.9 11.0-3.3
2020-Apr-07 14:00N 41°30' W 070°42'0 0.0 270 / 51013.3 10.0-2.5
2020-Apr-07 13:00N 41°30' W 070°42'0 0.0 280 / 51013.0 8.5-1.7
2020-Apr-07 12:00N 41°30' W 070°42'0 0.0 280 / 51013.4 8.3-0.7
2020-Apr-07 11:00N 41°30' W 070°42'0 0.0 280 / 41013.3 8.2-0.8
2020-Apr-07 10:00N 41°30' W 070°42'0 0.0 270 / 101012.7 8.3-2.1
2020-Apr-07 09:00N 41°30' W 070°42'0 0.0 290 / 31012.7 8.3-1.1
2020-Apr-07 08:00N 41°30' W 070°42'0 0.0 290 / 61012.8 8.8-2.7
2020-Apr-07 07:00N 41°30' W 070°42'0 0.0 280 / 81012.5 7.9 1.6
2020-Apr-07 06:00N 41°30' W 070°42'0 0.0 260 / 91012.9 8.2 2.6
2020-Apr-07 05:00N 41°30' W 070°42'0 0.0 250 / 101013.2 8.2 3.3
2020-Apr-07 04:00N 41°30' W 070°42'0 0.0 190 / 41013.2 6.8 4.3
2020-Apr-07 03:00N 41°30' W 070°42'0 0.0 220 / 101013.3 7.2 3.9
2020-Apr-07 02:00N 41°30' W 070°42'0 0.0 220 / 121013.6 7.3 3.6
2020-Apr-07 01:00N 41°30' W 070°42'0 0.0 200 / 121013.7 7.4 2.3
2020-Apr-07 00:00N 41°30' W 070°42'0 0.0 200 / 91013.5 7.4 2.9
2020-Apr-06 23:00N 41°30' W 070°42'0 0.0 170 / 161013.3 8.2 2.4
2020-Apr-06 22:00N 41°30' W 070°42'0 0.0 180 / 111013.6 9.1 2.1
2020-Apr-06 21:00N 41°30' W 070°42'0 0.0 190 / 91013.7 10.0 1.0
2020-Apr-06 20:00N 41°30' W 070°42'0 0.0 120 / 91013.6 10.3-1.4
2020-Apr-06 19:00N 41°30' W 070°42'0 0.0 130 / 81014.4 9.7-0.6
2020-Apr-06 18:00N 41°30' W 070°42'0 0.0 120 / 81014.8 9.8 1.2
2020-Apr-06 17:00N 41°30' W 070°42'0 0.0 140 / 71015.6 10.6-0.5
2020-Apr-06 16:00N 41°30' W 070°42'0 0.0 350 / 31016.1 10.8-2.1
2020-Apr-06 15:00N 41°30' W 070°42'0 0.0 350 / 51016.4 10.2-1.5
2020-Apr-06 14:00N 41°30' W 070°42'0 0.0 030 / 61016.5 8.5 2.2
2020-Apr-06 13:00N 41°30' W 070°42'0 0.0 340 / 31016.4 7.7 3.2
2020-Apr-06 12:00N 41°30' W 070°42'0 0.0 360 / 101016.2 6.7 3.3
2020-Apr-06 11:00N 41°30' W 070°42'0 0.0 010 / 41015.6 6.6 4.4
2020-Apr-06 10:00N 41°30' W 070°42'0 0.0 330 / 41015.1 6.5 4.8
2020-Apr-06 09:00N 41°30' W 070°42'0 0.0 320 / 61014.9 6.6 5.1
2020-Apr-06 08:00N 41°30' W 070°42'0 0.0 250 / 51014.8 6.8 5.0
2020-Apr-06 07:00N 41°30' W 070°42'0 0.0 220 / 61014.8 6.7 5.0
2020-Apr-06 06:00N 41°30' W 070°42'0 0.0 220 / 71015.1 6.9 4.8
2020-Apr-06 05:00N 41°30' W 070°42'0 0.0 230 / 61015.8 6.8 4.7
2020-Apr-06 04:00N 41°30' W 070°42'0 0.0 230 / 71016.6 6.7 4.3
2020-Apr-06 03:00N 41°30' W 070°42'0 0.0 220 / 101016.9 6.6 4.1
2020-Apr-06 02:00N 41°30' W 070°42'0 0.0 190 / 101017.0 6.4 4.0
2020-Apr-06 01:00N 41°30' W 070°42'0 0.0 200 / 131017.2 6.3 3.8
2020-Apr-06 00:00N 41°30' W 070°42'0 0.0 200 / 121016.9 6.3 3.7
2020-Apr-05 23:00N 41°30' W 070°42'0 0.0 200 / 111017.2 6.4 3.6
2020-Apr-05 22:00N 41°30' W 070°42'0 0.0 210 / 131017.2 7.1 3.3
2020-Apr-05 21:00N 41°30' W 070°42'0 0.0 220 / 111017.0 7.1 3.3
2020-Apr-05 20:00N 41°30' W 070°42'0 0.0 210 / 101017.4 7.7 3.4
2020-Apr-05 19:00N 41°30' W 070°42'0 0.0 210 / 61018.1 7.7 3.2
2020-Apr-05 18:00N 41°30' W 070°42'0 0.0 120 / 41018.5 7.0 2.0
2020-Apr-05 17:00N 41°30' W 070°42'0 0.0 160 / 71018.7 7.1 2.6
2020-Apr-05 16:00N 41°30' W 070°42'0 0.0 150 / 31019.0 6.9 2.0
2020-Apr-05 15:00N 41°30' W 070°42'0 0.0 160 / 21019.5 6.2 2.1
2020-Apr-05 14:00N 41°30' W 070°42'0 0.0 200 / 11019.5 5.9 2.1
2020-Apr-05 13:00N 41°30' W 070°42'0 0.0 310 / 21019.4 5.5 2.2
2020-Apr-05 12:00N 41°30' W 070°42'0 0.0 100 / 31019.1 4.9 1.9
2020-Apr-05 11:00N 41°30' W 070°42'0 0.0 040 / 21018.6 4.3 1.8
2020-Apr-05 10:00N 41°30' W 070°42'0 0.0 040 / 21018.2 4.1 1.9
2020-Apr-05 09:00N 41°30' W 070°42'0 0.0 010 / 41017.8 4.2 2.0
2020-Apr-05 08:00N 41°30' W 070°42'0 0.0 020 / 31017.7 4.0 2.1
2020-Apr-05 07:00N 41°30' W 070°42'0 0.0 350 / 21017.5 4.1 2.1
2020-Apr-05 06:00N 41°30' W 070°42'0 0.0 350 / 21017.4 4.2 1.9
2020-Apr-05 05:00N 41°30' W 070°42'0 0.0 330 / 31017.5 3.9 1.5
2020-Apr-05 04:00N 41°30' W 070°42'0 0.0 030 / 41017.5 3.5 0.9
2020-Apr-05 03:00N 41°30' W 070°42'0 0.0 030 / 31017.6 3.3 0.9
2020-Apr-05 02:00N 41°30' W 070°42'0 0.0 070 / 21017.3 3.4 0.7
2020-Apr-05 01:00N 41°30' W 070°42'0 0.0 030 / 51017.3 3.9 1.0
2020-Apr-05 00:00N 41°30' W 070°42'0 0.0 020 / 71016.8 4.4 1.2
2020-Apr-04 23:00N 41°30' W 070°42'0 0.0 020 / 41016.5 5.3 1.4
2020-Apr-04 22:00N 41°30' W 070°42'0 0.0 060 / 51016.0 6.3 1.4
2020-Apr-04 21:00N 41°30' W 070°42'0 0.0 360 / 111015.8 6.0 1.2
2020-Apr-04 20:00N 41°30' W 070°42'0 0.0 020 / 141015.9 5.8 1.4
2020-Apr-04 19:00N 41°30' W 070°42'0 0.0 020 / 151015.9 5.7 1.2
2020-Apr-04 18:00N 41°30' W 070°42'0 0.0 350 / 61016.2 5.4 1.8
2020-Apr-04 17:00N 41°30' W 070°42'0 0.0 030 / 101016.4 4.7 1.7
2020-Apr-04 16:00N 41°30' W 070°42'0 0.0 030 / 121016.3 4.9 2.0
2020-Apr-04 15:00N 41°30' W 070°42'0 0.0 020 / 91016.3 4.7 2.3
2020-Apr-04 14:00N 41°30' W 070°42'0 0.0 020 / 181016.0 4.5 2.3
2020-Apr-04 13:00N 41°30' W 070°42'0 0.0 010 / 141015.5 4.5 2.5
2020-Apr-04 12:00N 41°30' W 070°42'0 0.0 020 / 141014.5 4.7 2.5
2020-Apr-04 11:00N 41°30' W 070°42'0 0.0 010 / 131013.5 5.0 2.9
2020-Apr-04 10:00N 41°30' W 070°42'0 0.0 1012.3 5.4 3.2
2020-Apr-04 09:00N 41°30' W 070°42'0 0.0 010 / 171011.7 5.8 3.4
2020-Apr-04 08:00N 41°30' W 070°42'0 0.0 040 / 101011.2 5.8 3.7
2020-Apr-04 07:00N 41°30' W 070°42'0 0.0 030 / 91010.8 5.9 4.2
2020-Apr-04 06:00N 41°30' W 070°42'0 0.0 020 / 31010.4 6.0 4.2
2020-Apr-04 05:00N 41°30' W 070°42'0 0.0 060 / 121009.7 6.1 4.3
2020-Apr-04 04:00N 41°30' W 070°42'0 0.0 020 / 151009.3 6.2 4.4
2020-Apr-04 03:00N 41°30' W 070°42'0 0.0 030 / 191008.8 6.3 4.5
2020-Apr-04 02:00N 41°30' W 070°42'0 0.0 020 / 101008.3 6.5 4.6
2020-Apr-04 01:00N 41°30' W 070°42'0 0.0 010 / 111007.4 6.6 4.8
2020-Apr-04 00:00N 41°30' W 070°42'0 0.0 030 / 221005.9 6.6 4.6
2020-Apr-03 23:00N 41°30' W 070°42'0 0.0 020 / 181005.0 6.6 4.6
2020-Apr-03 22:00N 41°30' W 070°42'0 0.0 010 / 221003.8 6.5 4.7
2020-Apr-03 21:00N 41°30' W 070°42'0 0.0 020 / 191002.5 6.7 4.8
2020-Apr-03 20:00N 41°30' W 070°42'0 0.0 040 / 141001.4 6.8 4.9
2020-Apr-03 19:00N 41°30' W 070°42'0 0.0 020 / 81000.1 6.8 4.9
2020-Apr-03 18:00N 41°30' W 070°42'0 0.0 040 / 15999.1 6.8 4.8
2020-Apr-03 17:00N 41°30' W 070°42'0 0.0 020 / 21998.1 6.9 4.8
2020-Apr-03 16:00N 41°30' W 070°42'0 0.0 010 / 14997.4 6.8 5.0
2020-Apr-03 15:00N 41°30' W 070°42'0 0.0 010 / 31996.7 6.7 5.1
2020-Apr-03 14:00N 41°30' W 070°42'0 0.0 996.4 6.8 5.2
2020-Apr-03 13:00N 41°30' W 070°42'0 0.0 350 / 14995.7 6.7 5.1
2020-Apr-03 12:00N 41°30' W 070°42'0 0.0 360 / 22995.3 6.8 5.0
2020-Apr-03 11:00N 41°30' W 070°42'0 0.0 350 / 22995.0 6.9 5.0
2020-Apr-03 10:00N 41°30' W 070°42'0 0.0 350 / 12994.6 6.9 5.0
2020-Apr-03 09:00N 41°30' W 070°42'0 0.0 350 / 17994.5 6.8 5.0
2020-Apr-03 08:00N 41°30' W 070°42'0 0.0 350 / 10994.3 6.6 4.7
2020-Apr-03 07:00N 41°30' W 070°42'0 0.0 340 / 11994.5 6.4 4.6
2020-Apr-03 06:00N 41°30' W 070°42'0 0.0 340 / 15994.8 6.1 4.3
2020-Apr-03 05:00N 41°30' W 070°42'0 0.0 330 / 7995.6 5.9 4.1
2020-Apr-03 04:00N 41°30' W 070°42'0 0.0 340 / 14995.8 5.5 3.7
2020-Apr-03 03:00N 41°30' W 070°42'0 0.0 330 / 12996.4 5.3 3.3
2020-Apr-03 02:00N 41°30' W 070°42'0 0.0 330 / 16997.0 5.2 3.1
2020-Apr-03 01:00N 41°30' W 070°42'0 0.0 320 / 22997.4 5.3 3.3
2020-Apr-03 00:00N 41°30' W 070°42'0 0.0 320 / 20997.2 5.9 3.2
2020-Apr-02 23:00N 41°30' W 070°42'0 0.0 320 / 20997.1 6.3 3.1
2020-Apr-02 22:00N 41°30' W 070°42'0 0.0 330 / 18997.0 6.7 3.3
2020-Apr-02 18:00N 41°30' W 070°42'0 0.0 330 / 19997.6 7.7 2.8
2020-Apr-02 17:00N 41°30' W 070°42'0 0.0 330 / 10998.2 7.7 3.1
2020-Apr-02 16:00N 41°30' W 070°42'0 0.0 330 / 19998.3 7.3 2.5
2020-Apr-02 15:00N 41°30' W 070°42'0 0.0 330 / 18998.9 6.6 2.1
2020-Apr-02 14:00N 41°30' W 070°42'0 0.0 330 / 17999.5 6.1 1.6
2020-Apr-02 13:00N 41°30' W 070°42'0 0.0 320 / 191000.1 5.3 1.5
2020-Apr-02 12:00N 41°30' W 070°42'   320 / 201000.5 4.6 1.5

Dump ship's entire track history